createdAt,value
2018-02-27T00:00:45.638Z,-4.89
2018-02-27T00:01:46.095Z,-4.89
2018-02-27T00:02:46.552Z,-4.91
2018-02-27T00:03:47.052Z,-4.94
2018-02-27T00:04:47.453Z,-4.93
2018-02-27T00:05:47.908Z,-4.93
2018-02-27T00:06:48.359Z,-4.93
2018-02-27T00:07:48.806Z,-4.92
2018-02-27T00:08:49.265Z,-4.91
2018-02-27T00:09:49.721Z,-4.89
2018-02-27T00:10:50.170Z,-4.91
2018-02-27T00:11:50.616Z,-4.91
2018-02-27T00:12:51.076Z,-4.91
2018-02-27T00:14:03.716Z,-4.93
2018-02-27T00:14:51.980Z,-4.92
2018-02-27T00:15:52.435Z,-4.91
2018-02-27T00:16:52.887Z,-4.89
2018-02-27T00:17:53.339Z,-4.87
2018-02-27T00:18:53.787Z,-4.88
2018-02-27T00:19:54.244Z,-4.85
2018-02-27T00:20:54.698Z,-4.87
2018-02-27T00:21:55.151Z,-4.88
2018-02-27T00:22:55.597Z,-4.89
2018-02-27T00:23:56.065Z,-4.89
2018-02-27T00:24:56.509Z,-4.88
2018-02-27T00:25:56.963Z,-4.91
2018-02-27T00:26:57.411Z,-4.94
2018-02-27T00:27:57.867Z,-4.96
2018-02-27T00:28:58.369Z,-5.00
2018-02-27T00:29:58.766Z,-5.02
2018-02-27T00:30:59.224Z,-5.04
2018-02-27T00:31:59.677Z,-5.05
2018-02-27T00:33:00.128Z,-5.05
2018-02-27T00:34:00.580Z,-5.07
2018-02-27T00:36:01.494Z,-5.05
2018-02-27T00:37:01.942Z,-5.08
2018-02-27T00:38:02.392Z,-5.09
2018-02-27T00:40:03.301Z,-5.12
2018-02-27T00:41:03.749Z,-5.09
2018-02-27T00:42:04.200Z,-5.10
2018-02-27T00:43:04.654Z,-5.10
2018-02-27T00:44:05.107Z,-5.11
2018-02-27T00:46:06.013Z,-5.15
2018-02-27T00:48:06.914Z,-5.19
2018-02-27T00:49:07.372Z,-5.23
2018-02-27T00:50:07.821Z,-5.23
2018-02-27T00:51:08.272Z,-5.20
2018-02-27T00:52:08.721Z,-5.17
2018-02-27T00:53:09.178Z,-5.17
2018-02-27T00:54:09.636Z,-5.15
2018-02-27T00:55:21.767Z,-5.16
2018-02-27T00:56:10.580Z,-5.19
2018-02-27T00:57:10.989Z,-5.20
2018-02-27T00:58:11.435Z,-5.22
2018-02-27T00:59:11.891Z,-5.23
2018-02-27T01:01:12.797Z,-5.20
2018-02-27T01:02:13.249Z,-5.23
2018-02-27T01:03:13.697Z,-5.23
2018-02-27T01:04:14.155Z,-5.30
2018-02-27T01:05:14.607Z,-5.34
2018-02-27T01:06:15.058Z,-5.35
2018-02-27T01:07:15.512Z,-5.35
2018-02-27T01:08:15.968Z,-5.33
2018-02-27T01:10:16.865Z,-5.32
2018-02-27T01:11:17.323Z,-5.34
2018-02-27T01:12:17.773Z,-5.35
2018-02-27T01:13:18.228Z,-5.36
2018-02-27T01:14:18.677Z,-5.36
2018-02-27T01:15:19.181Z,-5.38
2018-02-27T01:16:19.583Z,-5.39
2018-02-27T01:17:20.236Z,-5.39
2018-02-27T01:18:20.490Z,-5.41
2018-02-27T01:19:20.937Z,-5.38
2018-02-27T01:20:21.394Z,-5.37
2018-02-27T01:21:21.838Z,-5.39
2018-02-27T01:22:22.295Z,-5.41
2018-02-27T01:23:22.749Z,-5.38
2018-02-27T01:24:23.200Z,-5.38
2018-02-27T01:25:23.856Z,-5.42
2018-02-27T01:27:24.557Z,-5.44
2018-02-27T01:28:25.009Z,-5.47
2018-02-27T01:29:25.468Z,-5.48
2018-02-27T01:30:25.961Z,-5.50
2018-02-27T01:31:26.364Z,-5.50
2018-02-27T01:32:26.811Z,-5.48
2018-02-27T01:33:27.268Z,-5.49
2018-02-27T01:34:27.720Z,-5.49
2018-02-27T01:35:28.171Z,-5.50
2018-02-27T01:36:28.624Z,-5.51
2018-02-27T01:37:29.077Z,-5.51
2018-02-27T01:38:29.527Z,-5.53
2018-02-27T01:39:29.977Z,-5.52
2018-02-27T01:40:41.813Z,-5.52
2018-02-27T01:42:31.335Z,-5.51
2018-02-27T01:43:31.784Z,-5.50
2018-02-27T01:44:32.241Z,-5.50
2018-02-27T01:46:33.149Z,-5.50
2018-02-27T01:47:33.596Z,-5.49
2018-02-27T01:48:34.048Z,-5.52
2018-02-27T01:49:34.501Z,-5.53
2018-02-27T01:50:34.947Z,-5.52
2018-02-27T01:51:35.405Z,-5.53
2018-02-27T01:52:35.857Z,-5.54
2018-02-27T01:53:36.308Z,-5.53
2018-02-27T01:54:36.755Z,-5.53
2018-02-27T01:55:37.213Z,-5.52
2018-02-27T01:56:37.665Z,-5.50
2018-02-27T01:57:38.116Z,-5.51
2018-02-27T01:58:38.569Z,-5.51
2018-02-27T01:59:39.019Z,-5.51
2018-02-27T02:00:39.474Z,-5.51
2018-02-27T02:01:40.120Z,-5.51
2018-02-27T02:02:40.377Z,-5.51
2018-02-27T02:03:40.826Z,-5.53
2018-02-27T02:04:41.279Z,-5.53
2018-02-27T02:05:41.732Z,-5.52
2018-02-27T02:06:42.386Z,-5.54
2018-02-27T02:07:42.634Z,-5.58
2018-02-27T02:08:43.087Z,-5.60
2018-02-27T02:09:43.541Z,-5.61
2018-02-27T02:11:44.442Z,-5.60
2018-02-27T02:12:44.889Z,-5.63
2018-02-27T02:13:45.346Z,-5.64
2018-02-27T02:14:45.799Z,-5.60
2018-02-27T02:15:46.250Z,-5.58
2018-02-27T02:17:47.155Z,-5.56
2018-02-27T02:18:47.605Z,-5.55
2018-02-27T02:19:48.057Z,-5.57
2018-02-27T02:20:48.713Z,-5.59
2018-02-27T02:21:48.959Z,-5.61
2018-02-27T02:22:49.413Z,-5.59
2018-02-27T02:23:49.861Z,-5.59
2018-02-27T02:24:50.316Z,-5.60
2018-02-27T02:25:50.770Z,-5.65
2018-02-27T02:27:51.671Z,-5.63
2018-02-27T02:28:52.124Z,-5.63
2018-02-27T02:29:52.572Z,-5.62
2018-02-27T02:30:53.022Z,-5.61
2018-02-27T02:31:53.480Z,-5.61
2018-02-27T02:32:53.932Z,-5.63
2018-02-27T02:33:54.385Z,-5.63
2018-02-27T02:34:54.829Z,-5.63
2018-02-27T02:35:55.283Z,-5.65
2018-02-27T02:36:55.737Z,-5.65
2018-02-27T02:37:56.189Z,-5.65
2018-02-27T02:38:56.641Z,-5.65
2018-02-27T02:39:57.096Z,-5.67
2018-02-27T02:40:57.544Z,-5.69
2018-02-27T02:41:58.044Z,-5.65
2018-02-27T02:43:58.900Z,-5.62
2018-02-27T02:44:59.349Z,-5.63
2018-02-27T02:45:59.800Z,-5.64
2018-02-27T02:47:00.252Z,-5.64
2018-02-27T02:48:00.711Z,-5.62
2018-02-27T02:49:01.157Z,-5.63
2018-02-27T02:51:02.071Z,-5.64
2018-02-27T02:52:02.510Z,-5.64
2018-02-27T02:53:02.957Z,-5.65
2018-02-27T02:54:03.414Z,-5.66
2018-02-27T02:55:03.867Z,-5.66
2018-02-27T02:56:04.317Z,-5.67
2018-02-27T02:57:04.770Z,-5.67
2018-02-27T02:58:05.226Z,-5.68
2018-02-27T02:59:05.672Z,-5.68
2018-02-27T03:00:06.123Z,-5.70
2018-02-27T03:01:06.577Z,-5.72
2018-02-27T03:02:07.231Z,-5.72
2018-02-27T03:04:07.926Z,-5.72
2018-02-27T03:05:08.388Z,-5.73
2018-02-27T03:06:08.835Z,-5.76
2018-02-27T03:07:09.287Z,-5.78
2018-02-27T03:09:10.189Z,-5.81
2018-02-27T03:10:10.639Z,-5.81
2018-02-27T03:11:11.092Z,-5.84
2018-02-27T03:12:11.594Z,-5.82
2018-02-27T03:13:11.997Z,-5.81
2018-02-27T03:14:12.446Z,-5.85
2018-02-27T03:15:12.894Z,-5.88
2018-02-27T03:16:13.349Z,-5.88
2018-02-27T03:17:25.890Z,-5.86
2018-02-27T03:18:14.254Z,-5.85
2018-02-27T03:19:14.711Z,-5.85
2018-02-27T03:20:15.156Z,-5.85
2018-02-27T03:21:15.610Z,-5.88
2018-02-27T03:22:16.054Z,-5.87
2018-02-27T03:24:16.961Z,-5.88
2018-02-27T03:25:17.412Z,-5.88
2018-02-27T03:26:17.861Z,-5.87
2018-02-27T03:27:18.364Z,-5.87
2018-02-27T03:28:18.767Z,-5.89
2018-02-27T03:30:19.675Z,-5.91
2018-02-27T03:31:20.121Z,-5.92
2018-02-27T03:32:20.624Z,-5.93
2018-02-27T03:33:21.020Z,-5.94
2018-02-27T03:34:21.476Z,-5.91
2018-02-27T03:35:21.929Z,-5.92
2018-02-27T03:36:22.377Z,-5.91
2018-02-27T03:37:22.826Z,-5.91
2018-02-27T03:38:23.282Z,-5.88
2018-02-27T03:39:23.734Z,-5.88
2018-02-27T03:40:24.183Z,-5.87
2018-02-27T03:41:24.636Z,-5.89
2018-02-27T03:42:25.090Z,-5.90
2018-02-27T03:43:25.536Z,-5.90
2018-02-27T03:44:25.987Z,-5.90
2018-02-27T03:46:26.891Z,-5.90
2018-02-27T03:47:38.924Z,-5.90
2018-02-27T03:48:27.804Z,-5.90
2018-02-27T03:49:28.246Z,-5.89
2018-02-27T03:50:28.699Z,-5.86
2018-02-27T03:51:29.148Z,-5.89
2018-02-27T03:52:40.931Z,-5.91
2018-02-27T03:53:30.051Z,-5.91
2018-02-27T03:54:30.502Z,-5.92
2018-02-27T03:55:30.947Z,-5.93
2018-02-27T03:56:31.405Z,-5.94
2018-02-27T03:57:31.858Z,-5.94
2018-02-27T03:58:32.308Z,-5.95
2018-02-27T04:00:33.210Z,-5.96
2018-02-27T04:03:34.558Z,-5.94
2018-02-27T04:04:35.015Z,-5.94
2018-02-27T04:05:35.467Z,-5.96
2018-02-27T04:06:35.918Z,-5.97
2018-02-27T04:08:36.822Z,-5.97
2018-02-27T04:09:37.270Z,-5.96
2018-02-27T04:11:38.173Z,-5.93
2018-02-27T04:12:38.676Z,-5.91
2018-02-27T04:13:39.076Z,-5.92
2018-02-27T04:14:39.523Z,-5.89
2018-02-27T04:15:39.979Z,-5.89
2018-02-27T04:16:40.484Z,-5.89
2018-02-27T04:17:40.983Z,-5.90
2018-02-27T04:18:41.334Z,-5.92
2018-02-27T04:19:41.787Z,-5.91
2018-02-27T04:20:42.235Z,-5.91
2018-02-27T04:21:42.685Z,-5.90
2018-02-27T04:22:43.132Z,-5.88
2018-02-27T04:23:43.589Z,-5.88
2018-02-27T04:24:44.044Z,-5.85
2018-02-27T04:25:44.490Z,-5.85
2018-02-27T04:26:44.945Z,-5.83
2018-02-27T04:27:45.444Z,-5.83
2018-02-27T04:28:45.849Z,-5.78
2018-02-27T04:29:46.296Z,-5.79
2018-02-27T04:30:46.748Z,-5.81
2018-02-27T04:31:47.192Z,-5.79
2018-02-27T04:33:48.104Z,-5.79
2018-02-27T04:34:48.554Z,-5.74
2018-02-27T04:35:48.999Z,-5.75
2018-02-27T04:36:49.458Z,-5.75
2018-02-27T04:37:49.958Z,-5.75
2018-02-27T04:38:50.354Z,-5.76
2018-02-27T04:39:50.809Z,-5.80
2018-02-27T04:40:51.262Z,-5.78
2018-02-27T04:42:52.157Z,-5.79
2018-02-27T04:43:52.614Z,-5.80
2018-02-27T04:44:53.066Z,-5.79
2018-02-27T04:45:53.516Z,-5.78
2018-02-27T04:46:53.971Z,-5.77
2018-02-27T04:47:54.622Z,-5.77
2018-02-27T04:48:54.872Z,-5.76
2018-02-27T04:49:55.322Z,-5.76
2018-02-27T04:50:55.777Z,-5.74
2018-02-27T04:51:56.225Z,-5.75
2018-02-27T04:52:56.671Z,-5.73
2018-02-27T04:53:57.128Z,-5.74
2018-02-27T04:54:57.581Z,-5.74
2018-02-27T04:55:58.032Z,-5.74
2018-02-27T04:56:58.482Z,-5.75
2018-02-27T04:57:58.933Z,-5.74
2018-02-27T04:58:59.385Z,-5.74
2018-02-27T04:59:59.835Z,-5.76
2018-02-27T05:01:00.287Z,-5.75
2018-02-27T05:02:00.740Z,-5.75
2018-02-27T05:03:01.243Z,-5.74
2018-02-27T05:04:01.643Z,-5.72
2018-02-27T05:05:02.095Z,-5.74
2018-02-27T05:06:02.546Z,-5.74
2018-02-27T05:07:02.999Z,-5.72
2018-02-27T05:08:03.644Z,-5.70
2018-02-27T05:09:03.898Z,-5.73
2018-02-27T05:10:04.353Z,-5.73
2018-02-27T05:11:04.803Z,-5.76
2018-02-27T05:12:05.253Z,-5.77
2018-02-27T05:14:06.156Z,-5.75
2018-02-27T05:15:06.804Z,-5.77
2018-02-27T05:17:07.513Z,-5.81
2018-02-27T05:18:07.961Z,-5.82
2018-02-27T05:19:08.457Z,-5.81
2018-02-27T05:20:08.864Z,-5.82
2018-02-27T05:21:09.314Z,-5.82
2018-02-27T05:22:09.771Z,-5.79
2018-02-27T05:23:10.251Z,-5.82
2018-02-27T05:24:10.669Z,-5.82
2018-02-27T05:25:11.121Z,-5.81
2018-02-27T05:26:11.567Z,-5.81
2018-02-27T05:27:12.023Z,-5.81
2018-02-27T05:28:12.475Z,-5.80
2018-02-27T05:29:12.977Z,-5.81
2018-02-27T05:30:13.378Z,-5.83
2018-02-27T05:31:13.830Z,-5.83
2018-02-27T05:32:14.283Z,-5.84
2018-02-27T05:33:14.732Z,-5.84
2018-02-27T05:34:27.020Z,-5.85
2018-02-27T05:36:16.084Z,-5.85
2018-02-27T05:37:16.536Z,-5.87
2018-02-27T05:38:16.988Z,-5.89
2018-02-27T05:39:17.491Z,-5.87
2018-02-27T05:40:17.890Z,-5.85
2018-02-27T05:41:18.336Z,-5.86
2018-02-27T05:42:18.794Z,-5.86
2018-02-27T05:43:19.246Z,-5.90
2018-02-27T05:44:19.898Z,-5.88
2018-02-27T05:45:20.146Z,-5.85
2018-02-27T05:46:20.606Z,-5.87
2018-02-27T05:47:21.049Z,-5.87
2018-02-27T05:48:21.496Z,-5.87
2018-02-27T05:49:22.004Z,-5.88
2018-02-27T05:50:22.403Z,-5.89
2018-02-27T05:51:22.855Z,-5.92
2018-02-27T05:52:23.300Z,-5.89
2018-02-27T05:53:23.757Z,-5.89
2018-02-27T05:54:24.208Z,-5.89
2018-02-27T05:55:24.660Z,-5.86
2018-02-27T05:56:25.111Z,-5.84
2018-02-27T05:57:25.558Z,-5.83
2018-02-27T05:58:26.017Z,-5.83
2018-02-27T05:59:26.516Z,-5.80
2018-02-27T06:00:26.917Z,-5.81
2018-02-27T06:01:27.369Z,-5.81
2018-02-27T06:02:27.822Z,-5.81
2018-02-27T06:03:28.475Z,-5.82
2018-02-27T06:04:28.773Z,-5.82
2018-02-27T06:05:29.176Z,-5.83
2018-02-27T06:06:29.621Z,-5.81
2018-02-27T06:07:30.079Z,-5.81
2018-02-27T06:08:30.527Z,-5.81
2018-02-27T06:09:30.978Z,-5.84
2018-02-27T06:10:31.431Z,-5.83
2018-02-27T06:11:31.883Z,-5.83
2018-02-27T06:12:32.331Z,-5.83
2018-02-27T06:13:32.784Z,-5.83
2018-02-27T06:14:33.439Z,-5.85
2018-02-27T06:15:33.687Z,-5.84
2018-02-27T06:16:34.133Z,-5.86
2018-02-27T06:17:34.590Z,-5.86
2018-02-27T06:18:35.041Z,-5.87
2018-02-27T06:19:35.492Z,-5.88
2018-02-27T06:20:35.938Z,-5.87
2018-02-27T06:21:36.395Z,-5.88
2018-02-27T06:22:36.850Z,-5.86
2018-02-27T06:23:37.298Z,-5.86
2018-02-27T06:24:37.800Z,-5.87
2018-02-27T06:25:38.202Z,-5.88
2018-02-27T06:26:38.647Z,-5.88
2018-02-27T06:27:39.102Z,-5.87
2018-02-27T06:29:40.066Z,-5.87
2018-02-27T06:30:40.460Z,-5.89
2018-02-27T06:31:40.910Z,-5.89
2018-02-27T06:32:41.359Z,-5.87
2018-02-27T06:33:41.807Z,-5.87
2018-02-27T06:34:54.095Z,-5.88
2018-02-27T06:35:42.713Z,-5.88
2018-02-27T06:36:43.164Z,-5.88
2018-02-27T06:37:43.617Z,-5.87
2018-02-27T06:38:44.066Z,-5.88
2018-02-27T06:39:44.575Z,-5.88
2018-02-27T06:40:44.963Z,-5.86
2018-02-27T06:41:45.421Z,-5.85
2018-02-27T06:42:45.872Z,-5.82
2018-02-27T06:43:46.323Z,-5.81
2018-02-27T06:45:47.221Z,-5.82
2018-02-27T06:46:47.681Z,-5.82
2018-02-27T06:47:48.128Z,-5.82
2018-02-27T06:48:48.579Z,-5.79
2018-02-27T06:49:49.082Z,-5.78
2018-02-27T06:50:49.483Z,-5.73
2018-02-27T06:51:50.135Z,-5.74
2018-02-27T06:52:50.386Z,-5.73
2018-02-27T06:53:50.834Z,-5.74
2018-02-27T06:54:51.331Z,-5.71
2018-02-27T06:55:51.740Z,-5.72
2018-02-27T06:56:52.188Z,-5.72
2018-02-27T06:57:52.641Z,-5.69
2018-02-27T06:58:53.091Z,-5.66
2018-02-27T06:59:53.747Z,-5.63
2018-02-27T07:00:53.995Z,-5.62
2018-02-27T07:01:54.440Z,-5.61
2018-02-27T07:02:54.899Z,-5.62
2018-02-27T07:03:55.348Z,-5.59
2018-02-27T07:04:55.850Z,-5.57
2018-02-27T07:05:56.251Z,-5.56
2018-02-27T07:06:56.706Z,-5.52
2018-02-27T07:07:57.154Z,-5.54
2018-02-27T07:08:57.604Z,-5.52
2018-02-27T07:09:58.055Z,-5.50
2018-02-27T07:10:58.509Z,-5.49
2018-02-27T07:11:58.959Z,-5.45
2018-02-27T07:12:59.406Z,-5.41
2018-02-27T07:13:59.863Z,-5.38
2018-02-27T07:15:00.364Z,-5.39
2018-02-27T07:16:00.766Z,-5.38
2018-02-27T07:17:01.219Z,-5.37
2018-02-27T07:18:01.669Z,-5.36
2018-02-27T07:19:02.120Z,-5.34
2018-02-27T07:20:02.571Z,-5.31
2018-02-27T07:21:03.022Z,-5.29
2018-02-27T07:22:03.469Z,-5.23
2018-02-27T07:23:03.926Z,-5.20
2018-02-27T07:24:04.377Z,-5.20
2018-02-27T07:25:04.879Z,-5.13
2018-02-27T07:26:05.282Z,-5.10
2018-02-27T07:27:05.733Z,-5.10
2018-02-27T07:28:06.180Z,-5.07
2018-02-27T07:29:06.638Z,-5.05
2018-02-27T07:30:07.139Z,-5.01
2018-02-27T07:31:07.540Z,-4.97
2018-02-27T07:32:07.986Z,-4.93
2018-02-27T07:33:08.444Z,-4.89
2018-02-27T07:34:08.896Z,-4.85
2018-02-27T07:35:09.550Z,-4.81
2018-02-27T07:36:09.800Z,-4.74
2018-02-27T07:37:10.251Z,-4.71
2018-02-27T07:38:10.704Z,-4.67
2018-02-27T07:39:11.148Z,-4.65
2018-02-27T07:40:11.608Z,-4.58
2018-02-27T07:41:12.058Z,-4.52
2018-02-27T07:42:12.560Z,-4.49
2018-02-27T07:43:12.961Z,-4.46
2018-02-27T07:44:13.416Z,-4.41
2018-02-27T07:45:13.867Z,-4.40
2018-02-27T07:46:14.318Z,-4.33
2018-02-27T07:47:14.787Z,-4.27
2018-02-27T07:48:15.224Z,-4.21
2018-02-27T07:49:15.677Z,-4.17
2018-02-27T07:50:16.125Z,-4.09
2018-02-27T07:51:16.623Z,-4.03
2018-02-27T07:52:17.036Z,-3.99
2018-02-27T07:53:17.484Z,-3.92
2018-02-27T07:54:17.939Z,-3.87
2018-02-27T07:55:18.391Z,-3.81
2018-02-27T07:56:18.840Z,-3.76
2018-02-27T07:57:19.296Z,-3.70
2018-02-27T07:58:19.750Z,-3.65
2018-02-27T07:59:20.202Z,-3.57
2018-02-27T08:00:20.657Z,-3.53
2018-02-27T08:01:21.108Z,-3.50
2018-02-27T08:02:21.561Z,-3.45
2018-02-27T08:03:22.013Z,-3.41
2018-02-27T08:04:22.469Z,-3.37
2018-02-27T08:05:22.974Z,-3.34
2018-02-27T08:06:23.424Z,-3.31
2018-02-27T08:07:23.835Z,-3.24
2018-02-27T08:08:24.291Z,-3.20
2018-02-27T08:09:24.728Z,-3.16
2018-02-27T08:12:26.112Z,-2.97
2018-02-27T08:13:26.565Z,-2.91
2018-02-27T08:14:27.020Z,-2.84
2018-02-27T08:15:27.483Z,-2.76
2018-02-27T08:16:27.938Z,-2.72
2018-02-27T08:17:28.390Z,-2.65
2018-02-27T08:18:28.843Z,-2.61
2018-02-27T08:19:29.294Z,-2.52
2018-02-27T08:20:29.804Z,-2.47
2018-02-27T08:21:30.200Z,-2.43
2018-02-27T08:22:30.663Z,-2.39
2018-02-27T08:23:31.115Z,-2.33
2018-02-27T08:25:32.074Z,-2.23
2018-02-27T08:26:32.478Z,-2.18
2018-02-27T08:27:32.935Z,-2.14
2018-02-27T08:28:33.433Z,-2.08
2018-02-27T08:30:34.345Z,-1.96
2018-02-27T08:31:34.750Z,-1.90
2018-02-27T08:32:35.202Z,-1.83
2018-02-27T08:33:35.659Z,-1.74
2018-02-27T08:34:36.108Z,-1.70
2018-02-27T08:35:36.567Z,-1.61
2018-02-27T08:36:37.025Z,-1.53
2018-02-27T08:37:37.507Z,-1.46
2018-02-27T08:38:37.933Z,-1.41
2018-02-27T08:39:38.419Z,-1.34
2018-02-27T08:41:39.289Z,-1.25
2018-02-27T08:42:39.751Z,-1.19
2018-02-27T08:43:40.206Z,-1.13
2018-02-27T08:44:40.660Z,-1.10
2018-02-27T08:47:54.269Z,-0.93
2018-02-27T08:48:42.483Z,-0.88
2018-02-27T08:49:42.937Z,-0.83
2018-02-27T08:50:43.397Z,-0.78
2018-02-27T08:51:43.850Z,-0.74
2018-02-27T08:52:44.300Z,-0.70
2018-02-27T08:53:44.806Z,-0.65
2018-02-27T08:54:45.212Z,-0.58
2018-02-27T08:57:46.635Z,-0.43
2018-02-27T08:58:47.034Z,-0.37
2018-02-27T08:59:47.494Z,-0.30
2018-02-27T09:00:47.952Z,-0.27
2018-02-27T09:01:48.419Z,-0.21
2018-02-27T09:02:48.865Z,-0.16
2018-02-27T09:03:49.321Z,-0.13
2018-02-27T09:04:49.779Z,-0.08
2018-02-27T09:05:50.231Z,-0.04
2018-02-27T09:06:50.689Z,0.01
2018-02-27T09:07:51.196Z,0.08
2018-02-27T09:08:51.806Z,0.13
2018-02-27T09:09:52.052Z,0.21
2018-02-27T09:10:52.514Z,0.27
2018-02-27T09:11:52.972Z,0.32
2018-02-27T09:12:53.480Z,0.40
2018-02-27T09:13:53.886Z,0.43
2018-02-27T09:14:54.343Z,0.49
2018-02-27T09:15:54.801Z,0.52
2018-02-27T09:17:55.764Z,0.63
2018-02-27T09:18:56.168Z,0.69
2018-02-27T09:20:57.085Z,0.78
2018-02-27T09:21:57.536Z,0.83
2018-02-27T09:22:57.999Z,0.87
2018-02-27T09:23:58.457Z,0.93
2018-02-27T09:24:58.917Z,0.98
2018-02-27T09:25:59.365Z,1.04
2018-02-27T09:26:59.828Z,1.12
2018-02-27T09:28:00.491Z,1.17
2018-02-27T09:29:00.745Z,1.24
2018-02-27T09:30:01.208Z,1.30
2018-02-27T09:31:01.661Z,1.37
2018-02-27T09:32:02.118Z,1.42
2018-02-27T09:33:02.570Z,1.47
2018-02-27T09:34:03.034Z,1.53
2018-02-27T09:35:03.487Z,1.58
2018-02-27T09:36:04.007Z,1.64
2018-02-27T09:38:04.918Z,1.76
2018-02-27T09:39:05.325Z,1.82
2018-02-27T09:40:05.784Z,1.87
2018-02-27T09:41:06.243Z,1.94
2018-02-27T09:42:06.701Z,1.97
2018-02-27T09:43:07.155Z,2.03
2018-02-27T09:44:07.621Z,2.10
2018-02-27T09:45:08.078Z,2.15
2018-02-27T09:46:08.537Z,2.19
2018-02-27T09:47:08.996Z,2.24
2018-02-27T09:48:09.508Z,2.28
2018-02-27T09:49:09.920Z,2.34
2018-02-27T09:50:10.372Z,2.41
2018-02-27T09:51:10.833Z,2.44
2018-02-27T09:52:11.322Z,2.49
2018-02-27T09:53:11.802Z,2.55
2018-02-27T09:54:12.206Z,2.60
2018-02-27T09:55:12.670Z,2.65
2018-02-27T09:56:13.125Z,2.70
2018-02-27T09:57:13.589Z,2.76
2018-02-27T09:58:14.251Z,2.80
2018-02-27T09:59:14.711Z,2.85
2018-02-27T10:00:14.970Z,2.89
2018-02-27T10:01:15.429Z,2.91
2018-02-27T10:02:15.891Z,2.96
2018-02-27T10:03:16.397Z,2.99
2018-02-27T10:04:16.809Z,3.02
2018-02-27T10:05:17.270Z,3.06
2018-02-27T10:06:17.741Z,3.13
2018-02-27T10:07:18.189Z,3.15
2018-02-27T10:08:18.650Z,3.21
2018-02-27T10:09:19.111Z,3.25
2018-02-27T10:10:19.571Z,3.30
2018-02-27T10:11:20.030Z,3.33
2018-02-27T10:12:20.491Z,3.39
2018-02-27T10:13:20.997Z,3.41
2018-02-27T10:14:21.412Z,3.45
2018-02-27T10:15:21.873Z,3.49
2018-02-27T10:16:22.332Z,3.54
2018-02-27T10:17:22.796Z,3.57
2018-02-27T10:18:23.305Z,3.62
2018-02-27T10:19:23.916Z,3.66
2018-02-27T10:20:24.175Z,3.70
2018-02-27T10:21:24.637Z,3.74
2018-02-27T10:22:25.096Z,3.78
2018-02-27T10:23:25.610Z,3.83
2018-02-27T10:24:26.018Z,3.89
2018-02-27T10:25:26.480Z,3.94
2018-02-27T10:26:26.940Z,3.97
2018-02-27T10:27:27.415Z,4.04
2018-02-27T10:29:28.324Z,4.11
2018-02-27T10:31:29.243Z,4.21
2018-02-27T10:32:29.711Z,4.25
2018-02-27T10:34:30.634Z,4.35
2018-02-27T10:35:31.088Z,4.39
2018-02-27T10:36:31.559Z,4.45
2018-02-27T10:37:32.016Z,4.49
2018-02-27T10:39:33.142Z,4.55
2018-02-27T10:40:33.401Z,4.62
2018-02-27T10:41:33.864Z,4.66
2018-02-27T10:42:34.320Z,4.72
2018-02-27T10:43:34.785Z,4.76
2018-02-27T10:45:47.349Z,4.82
2018-02-27T10:46:36.165Z,4.86
2018-02-27T10:47:36.635Z,4.91
2018-02-27T10:48:37.097Z,4.97
2018-02-27T10:49:37.559Z,5.01
2018-02-27T10:50:38.226Z,5.06
2018-02-27T10:51:38.483Z,5.11
2018-02-27T10:52:38.945Z,5.15
2018-02-27T10:53:39.403Z,5.19
2018-02-27T10:54:39.872Z,5.25
2018-02-27T10:55:40.332Z,5.31
2018-02-27T10:56:40.795Z,5.36
2018-02-27T10:57:41.253Z,5.40
2018-02-27T10:58:41.717Z,5.46
2018-02-27T11:00:42.646Z,5.54
2018-02-27T11:01:43.108Z,5.60
2018-02-27T11:02:43.571Z,5.63
2018-02-27T11:03:44.034Z,5.67
2018-02-27T11:04:44.498Z,5.70
2018-02-27T11:05:44.960Z,5.72
2018-02-27T11:06:45.420Z,5.75
2018-02-27T11:07:45.881Z,5.79
2018-02-27T11:08:46.349Z,5.83
2018-02-27T11:09:46.811Z,5.87
2018-02-27T11:10:47.325Z,5.90
2018-02-27T11:11:47.936Z,5.95
2018-02-27T11:12:48.201Z,5.97
2018-02-27T11:13:48.664Z,6.01
2018-02-27T11:14:49.127Z,6.04
2018-02-27T11:15:49.642Z,6.08
2018-02-27T11:16:50.053Z,6.10
2018-02-27T11:17:50.520Z,6.13
2018-02-27T11:18:50.980Z,6.14
2018-02-27T11:21:03.443Z,6.21
2018-02-27T11:21:52.371Z,6.25
2018-02-27T11:22:52.835Z,6.26
2018-02-27T11:23:53.298Z,6.30
2018-02-27T11:24:53.759Z,6.33
2018-02-27T11:26:54.690Z,6.38
2018-02-27T11:28:55.611Z,6.43
2018-02-27T11:29:56.081Z,6.47
2018-02-27T11:30:56.543Z,6.50
2018-02-27T11:33:11.724Z,6.57
2018-02-27T11:34:12.185Z,6.61
2018-02-27T11:35:12.654Z,6.64
2018-02-27T11:36:13.116Z,6.67
2018-02-27T11:37:13.634Z,6.69
2018-02-27T11:38:14.044Z,6.73
2018-02-27T11:39:14.510Z,6.76
2018-02-27T11:40:14.971Z,6.79
2018-02-27T11:41:15.435Z,6.80
2018-02-27T11:42:27.385Z,6.82
2018-02-27T11:43:16.365Z,6.85
2018-02-27T11:45:17.294Z,6.90
2018-02-27T11:46:17.759Z,6.91
2018-02-27T11:47:18.218Z,6.93
2018-02-27T11:48:18.688Z,6.95
2018-02-27T11:49:19.155Z,6.96
2018-02-27T11:51:20.081Z,6.98
2018-02-27T11:53:21.003Z,7.01
2018-02-27T11:54:21.474Z,7.02
2018-02-27T11:55:21.937Z,7.01
2018-02-27T11:56:22.403Z,7.02
2018-02-27T11:57:22.917Z,7.03
2018-02-27T11:58:23.331Z,7.03
2018-02-27T11:59:23.800Z,7.04
2018-02-27T12:00:24.256Z,7.04
2018-02-27T12:01:24.724Z,7.03
2018-02-27T12:03:25.705Z,7.03
2018-02-27T12:04:26.117Z,7.01
2018-02-27T12:05:26.592Z,7.00
2018-02-27T12:06:27.049Z,6.99
2018-02-27T12:07:27.514Z,6.98
2018-02-27T12:08:28.028Z,6.98
2018-02-27T12:09:28.442Z,6.98
2018-02-27T12:11:29.374Z,6.99
2018-02-27T12:12:29.830Z,6.97
2018-02-27T12:13:30.301Z,6.98
2018-02-27T12:14:30.768Z,6.99
2018-02-27T12:15:31.230Z,6.99
2018-02-27T12:16:31.694Z,6.99
2018-02-27T12:17:32.161Z,6.99
2018-02-27T12:18:32.676Z,6.99
2018-02-27T12:19:33.084Z,6.99
2018-02-27T12:21:34.021Z,7.02
2018-02-27T12:22:34.480Z,7.03
2018-02-27T12:23:34.949Z,7.04
2018-02-27T12:24:35.412Z,7.03
2018-02-27T12:25:35.878Z,7.02
2018-02-27T12:26:36.345Z,7.03
2018-02-27T12:27:36.808Z,7.04
2018-02-27T12:28:37.273Z,7.03
2018-02-27T12:29:37.737Z,7.03
2018-02-27T12:30:38.205Z,7.02
2018-02-27T12:31:38.667Z,7.03
2018-02-27T12:32:39.126Z,7.05
2018-02-27T12:33:51.488Z,7.05
2018-02-27T12:34:40.061Z,7.05
2018-02-27T12:35:40.526Z,7.05
2018-02-27T12:36:40.987Z,7.04
2018-02-27T12:37:41.456Z,7.04
2018-02-27T12:38:41.971Z,7.05
2018-02-27T12:40:42.859Z,7.04
2018-02-27T12:41:43.316Z,7.04
2018-02-27T12:42:43.782Z,7.05
2018-02-27T12:43:44.444Z,7.05
2018-02-27T12:44:44.710Z,7.05
2018-02-27T12:45:45.175Z,7.05
2018-02-27T12:46:45.640Z,7.05
2018-02-27T12:47:46.101Z,7.06
2018-02-27T12:48:46.570Z,7.06
2018-02-27T12:49:47.038Z,7.07
2018-02-27T12:51:47.969Z,7.04
2018-02-27T12:52:48.432Z,7.04
2018-02-27T12:53:48.945Z,7.05
2018-02-27T12:54:49.356Z,7.07
2018-02-27T12:55:49.827Z,7.08
2018-02-27T12:57:50.757Z,7.11
2018-02-27T12:58:51.271Z,7.11
2018-02-27T12:59:51.687Z,7.11
2018-02-27T13:00:52.150Z,7.13
2018-02-27T13:01:52.618Z,7.15
2018-02-27T13:02:53.076Z,7.15
2018-02-27T13:04:05.489Z,7.14
2018-02-27T13:04:54.013Z,7.14
2018-02-27T13:05:54.477Z,7.16
2018-02-27T13:06:54.944Z,7.16
2018-02-27T13:07:55.407Z,7.17
2018-02-27T13:08:55.872Z,7.16
2018-02-27T13:09:56.336Z,7.15
2018-02-27T13:10:56.803Z,7.16
2018-02-27T13:11:57.267Z,7.16
2018-02-27T13:12:57.733Z,7.16
2018-02-27T13:13:58.194Z,7.17
2018-02-27T13:14:58.661Z,7.16
2018-02-27T13:15:59.134Z,7.15
2018-02-27T13:18:00.060Z,7.18
2018-02-27T13:19:00.576Z,7.21
2018-02-27T13:20:00.987Z,7.21
2018-02-27T13:21:01.452Z,7.20
2018-02-27T13:22:01.919Z,7.20
2018-02-27T13:23:02.387Z,7.21
2018-02-27T13:24:02.898Z,7.22
2018-02-27T13:25:03.312Z,7.22
2018-02-27T13:26:03.773Z,7.22
2018-02-27T13:27:04.244Z,7.22
2018-02-27T13:28:04.710Z,7.21
2018-02-27T13:29:05.173Z,7.21
2018-02-27T13:30:05.634Z,7.20
2018-02-27T13:31:06.105Z,7.19
2018-02-27T13:32:06.570Z,7.18
2018-02-27T13:33:07.043Z,7.19
2018-02-27T13:34:07.550Z,7.18
2018-02-27T13:35:07.968Z,7.16
2018-02-27T13:36:08.431Z,7.17
2018-02-27T13:37:08.896Z,7.16
2018-02-27T13:38:09.360Z,7.15
2018-02-27T13:39:21.514Z,7.16
2018-02-27T13:40:10.287Z,7.17
2018-02-27T13:41:10.754Z,7.19
2018-02-27T13:43:11.686Z,7.22
2018-02-27T13:46:13.080Z,7.22
2018-02-27T13:47:13.546Z,7.20
2018-02-27T13:48:14.007Z,7.19
2018-02-27T13:49:14.514Z,7.17
2018-02-27T13:50:14.942Z,7.16
2018-02-27T13:51:15.407Z,7.14
2018-02-27T13:52:15.887Z,7.12
2018-02-27T13:53:16.337Z,7.12
2018-02-27T13:54:16.804Z,7.07
2018-02-27T13:55:17.267Z,7.05
2018-02-27T13:56:17.734Z,7.04
2018-02-27T13:57:18.199Z,7.01
2018-02-27T13:58:18.663Z,7.02
2018-02-27T13:59:19.129Z,7.02
2018-02-27T14:00:19.589Z,7.02
2018-02-27T14:01:20.060Z,7.02
2018-02-27T14:02:20.528Z,7.01
2018-02-27T14:03:20.990Z,7.02
2018-02-27T14:04:21.455Z,7.02
2018-02-27T14:06:22.384Z,7.03
2018-02-27T14:07:22.850Z,7.07
2018-02-27T14:08:23.320Z,7.09
2018-02-27T14:09:23.776Z,7.10
2018-02-27T14:10:24.295Z,7.13
2018-02-27T14:11:24.709Z,7.12
2018-02-27T14:12:25.177Z,7.12
2018-02-27T14:13:25.636Z,7.11
2018-02-27T14:14:26.107Z,7.09
2018-02-27T14:15:38.559Z,7.11